Time;durP1;ratioP1;P1;durP2;ratioP2;P2;SDS_P1;SDS_P2;PMS_P1;PMS_P2;Temp;Humidity;BMP_temperature;BMP_pressure;BME280_temperature;BME280_humidity;BME280_pressure;Samples;Min_cycle;Max_cycle;Signal;HPM_P1;HPM_P2
2022/07/24 00:00:52;;;;;;;27.15;21.50;;;;;;;;;;4938661;28;20117;-71
2022/07/24 00:03:17;;;;;;;28.85;22.67;;;;;;;;;;4938474;28;20030;-70
2022/07/24 00:05:43;;;;;;;29.77;23.42;;;;;;;;;;4938327;28;20038;-69
2022/07/24 00:08:08;;;;;;;31.25;24.25;;;;;;;;;;4938178;28;20286;-70
2022/07/24 00:10:34;;;;;;;29.48;24.08;;;;;;;;;;4937817;28;20031;-70
2022/07/24 00:12:59;;;;;;;35.10;26.73;;;;;;;;;;4936839;28;20065;-71
2022/07/24 00:15:24;;;;;;;32.00;26.08;;;;;;;;;;4937220;28;20101;-69
2022/07/24 00:17:52;;;;;;;32.20;25.00;;;;;;;;;;4940081;28;20150;-69
2022/07/24 00:20:18;;;;;;;32.50;26.13;;;;;;;;;;4936834;28;20929;-71
2022/07/24 00:22:43;;;;;;;30.45;25.25;;;;;;;;;;4938548;28;20035;-71
2022/07/24 00:25:08;;;;;;;40.50;29.48;;;;;;;;;;4952441;28;20046;-71
2022/07/24 00:27:34;;;;;;;43.22;30.63;;;;;;;;;;4937758;28;20058;-71
2022/07/24 00:29:59;;;;;;;31.15;24.23;;;;;;;;;;4937220;28;20153;-70
2022/07/24 00:32:24;;;;;;;30.15;24.42;;;;;;;;;;4938217;28;20847;-71
2022/07/24 00:34:50;;;;;;;28.10;23.17;;;;;;;;;;4937044;28;20043;-69
2022/07/24 00:37:15;;;;;;;27.42;23.05;;;;;;;;;;4937338;28;20046;-71
2022/07/24 00:39:45;;;;;;;27.00;21.08;;;;;;;;;;4936009;28;20046;-70
2022/07/24 00:42:12;;;;;;;26.92;21.70;;;;;;;;;;4943637;28;20038;-72
2022/07/24 00:44:38;;;;;;;31.60;23.05;;;;;;;;;;4935389;28;20035;-69
2022/07/24 00:47:03;;;;;;;25.15;21.90;;;;;;;;;;4936909;28;20038;-70
2022/07/24 00:49:30;;;;;;;32.15;25.38;;;;;;;;;;4936116;28;20101;-71
2022/07/24 00:51:56;;;;;;;20.30;17.02;;;;;;;;;;4937211;28;20830;-71
2022/07/24 00:54:23;;;;;;;25.48;20.17;;;;;;;;;;4936410;28;20137;-70
2022/07/24 00:56:50;;;;;;;26.20;22.00;;;;;;;;;;4936864;28;20046;-69
2022/07/24 00:59:15;;;;;;;31.13;23.55;;;;;;;;;;4935160;28;20215;-70
2022/07/24 01:01:42;;;;;;;29.88;21.40;;;;;;;;;;4941552;28;20550;-71
2022/07/24 01:04:07;;;;;;;29.90;22.45;;;;;;;;;;4935108;28;20034;-71
2022/07/24 01:06:33;;;;;;;23.38;15.27;;;;;;;;;;4937130;28;21218;-71
2022/07/24 01:09:00;;;;;;;18.92;14.50;;;;;;;;;;4937248;28;20035;-70
2022/07/24 01:11:26;;;;;;;29.08;21.17;;;;;;;;;;4936366;28;20097;-71
2022/07/24 01:13:54;;;;;;;36.85;25.70;;;;;;;;;;4936537;28;20077;-70
2022/07/24 01:16:19;;;;;;;24.23;16.85;;;;;;;;;;4936669;28;20125;-70
2022/07/24 01:18:45;;;;;;;28.67;19.80;;;;;;;;;;4936380;28;21106;-70
2022/07/24 01:21:10;;;;;;;25.73;19.02;;;;;;;;;;4935430;28;20043;-67
2022/07/24 01:23:35;;;;;;;27.80;20.50;;;;;;;;;;4938092;28;20138;-70
2022/07/24 01:26:01;;;;;;;27.80;20.42;;;;;;;;;;4937148;28;20035;-71
2022/07/24 01:28:27;;;;;;;22.90;19.10;;;;;;;;;;4939348;28;20027;-70
2022/07/24 01:30:53;;;;;;;30.38;22.90;;;;;;;;;;4934241;28;20050;-70
2022/07/24 01:33:21;;;;;;;24.48;18.20;;;;;;;;;;4949660;28;20034;-70
2022/07/24 01:35:49;;;;;;;24.13;17.38;;;;;;;;;;4950164;28;20113;-70
2022/07/24 01:38:16;;;;;;;23.00;16.60;;;;;;;;;;4949385;28;20031;-70
2022/07/24 01:40:42;;;;;;;22.67;15.05;;;;;;;;;;4950250;28;20133;-70
2022/07/24 01:43:07;;;;;;;19.52;13.43;;;;;;;;;;4934978;28;20039;-71
2022/07/24 01:45:32;;;;;;;18.73;12.20;;;;;;;;;;4935861;28;20073;-70
2022/07/24 01:47:58;;;;;;;16.80;9.73;;;;;;;;;;4944761;28;20221;-70
2022/07/24 01:50:23;;;;;;;14.30;9.88;;;;;;;;;;4935434;28;20093;-69
2022/07/24 01:52:48;;;;;;;13.73;8.85;;;;;;;;;;4936025;28;20723;-70
2022/07/24 01:55:16;;;;;;;12.23;8.10;;;;;;;;;;4934755;28;20154;-70
2022/07/24 01:57:43;;;;;;;15.50;6.40;;;;;;;;;;4929164;28;20742;-71
2022/07/24 02:00:12;;;;;;;15.13;5.95;;;;;;;;;;4935330;28;20046;-71
2022/07/24 02:02:38;;;;;;;13.32;5.68;;;;;;;;;;4936099;28;20039;-70
2022/07/24 02:05:04;;;;;;;16.27;6.80;;;;;;;;;;4936078;28;20130;-71
2022/07/24 02:07:29;;;;;;;14.48;5.93;;;;;;;;;;4933660;28;20925;-70
2022/07/24 02:09:54;;;;;;;15.95;5.63;;;;;;;;;;4950278;28;20744;-70
2022/07/24 02:12:22;;;;;;;10.23;5.72;;;;;;;;;;4934524;28;22348;-70
2022/07/24 02:14:47;;;;;;;8.40;4.95;;;;;;;;;;4935370;28;20034;-70
2022/07/24 02:17:13;;;;;;;13.02;4.88;;;;;;;;;;4935075;28;20050;-69
2022/07/24 02:19:38;;;;;;;12.45;4.90;;;;;;;;;;4935533;28;20067;-70
2022/07/24 02:22:04;;;;;;;13.15;5.20;;;;;;;;;;4934085;28;20058;-70
2022/07/24 02:24:29;;;;;;;7.75;4.45;;;;;;;;;;4937543;28;20054;-72
2022/07/24 02:26:57;;;;;;;13.18;5.10;;;;;;;;;;4941040;28;20035;-71
2022/07/24 02:29:22;;;;;;;11.68;5.00;;;;;;;;;;4935181;28;23723;-70
2022/07/24 02:31:48;;;;;;;11.30;5.32;;;;;;;;;;4949342;28;20038;-71
2022/07/24 02:34:13;;;;;;;12.15;5.50;;;;;;;;;;4932260;28;22401;-69
2022/07/24 02:36:38;;;;;;;9.77;5.60;;;;;;;;;;4934866;28;20780;-70
2022/07/24 02:39:03;;;;;;;13.48;6.20;;;;;;;;;;4935348;28;20062;-70
2022/07/24 02:41:29;;;;;;;12.98;6.55;;;;;;;;;;4949151;28;20150;-70
2022/07/24 02:43:56;;;;;;;16.77;6.55;;;;;;;;;;4934408;28;20055;-70
2022/07/24 02:46:21;;;;;;;12.27;6.18;;;;;;;;;;4933409;28;20116;-70
2022/07/24 02:48:47;;;;;;;11.63;5.40;;;;;;;;;;4911303;28;20056;-70
2022/07/24 02:51:15;;;;;;;5.97;3.80;;;;;;;;;;4934863;28;20042;-71
2022/07/24 02:53:40;;;;;;;11.25;4.43;;;;;;;;;;4935330;28;20038;-71
2022/07/24 02:56:08;;;;;;;11.50;4.38;;;;;;;;;;4933970;28;20053;-69
2022/07/24 02:58:33;;;;;;;13.55;3.70;;;;;;;;;;4933893;28;20078;-70
2022/07/24 03:00:59;;;;;;;11.32;4.07;;;;;;;;;;4934430;28;20039;-71
2022/07/24 03:03:24;;;;;;;10.05;3.63;;;;;;;;;;4932481;28;20049;-71
2022/07/24 03:05:49;;;;;;;14.02;4.00;;;;;;;;;;4932732;28;20712;-70
2022/07/24 03:08:14;;;;;;;10.30;3.63;;;;;;;;;;4929595;28;20624;-69
2022/07/24 03:10:40;;;;;;;10.30;3.20;;;;;;;;;;4932990;28;20052;-70
2022/07/24 03:13:05;;;;;;;9.95;3.30;;;;;;;;;;4931319;28;20031;-70
2022/07/24 03:15:30;;;;;;;6.55;2.92;;;;;;;;;;4932267;28;20051;-70
2022/07/24 03:17:56;;;;;;;7.50;2.90;;;;;;;;;;4932448;28;20038;-70
2022/07/24 03:20:23;;;;;;;6.55;3.33;;;;;;;;;;4931379;28;20031;-71
2022/07/24 03:22:49;;;;;;;6.10;2.97;;;;;;;;;;4932869;28;21076;-71
2022/07/24 03:25:14;;;;;;;8.85;3.20;;;;;;;;;;4935178;28;20034;-71
2022/07/24 03:27:40;;;;;;;9.50;2.92;;;;;;;;;;4931705;28;20109;-70
2022/07/24 03:30:06;;;;;;;9.15;3.10;;;;;;;;;;4932448;28;20031;-70
2022/07/24 03:32:32;;;;;;;8.95;3.00;;;;;;;;;;4932475;28;20117;-70
2022/07/24 03:34:57;;;;;;;5.50;3.08;;;;;;;;;;4931253;28;20039;-70
2022/07/24 03:37:23;;;;;;;12.18;2.97;;;;;;;;;;4932007;28;20718;-70
2022/07/24 03:39:48;;;;;;;8.98;3.63;;;;;;;;;;4933292;28;20106;-69
2022/07/24 03:42:14;;;;;;;10.52;3.20;;;;;;;;;;4932103;28;20027;-71
2022/07/24 03:44:39;;;;;;;7.32;3.42;;;;;;;;;;4936785;28;20043;-70
2022/07/24 03:47:07;;;;;;;10.25;3.10;;;;;;;;;;4931780;28;20891;-71
2022/07/24 03:49:32;;;;;;;8.55;2.67;;;;;;;;;;4931642;28;20844;-69
2022/07/24 03:51:58;;;;;;;9.38;2.70;;;;;;;;;;4941290;28;20045;-70
2022/07/24 03:54:23;;;;;;;9.57;2.95;;;;;;;;;;4935947;28;20043;-70
2022/07/24 03:56:51;;;;;;;7.80;3.20;;;;;;;;;;4934054;28;20095;-69
2022/07/24 03:59:17;;;;;;;7.95;3.20;;;;;;;;;;4933279;28;22357;-69
2022/07/24 04:01:42;;;;;;;5.90;3.17;;;;;;;;;;4934257;28;20105;-70
2022/07/24 04:04:08;;;;;;;8.32;3.35;;;;;;;;;;4938208;28;20046;-71
2022/07/24 04:06:34;;;;;;;14.48;7.60;;;;;;;;;;4932054;28;20644;-69
2022/07/24 04:08:59;;;;;;;12.20;6.03;;;;;;;;;;4933051;28;20880;-69
2022/07/24 04:11:25;;;;;;;13.38;5.88;;;;;;;;;;4935150;28;20046;-71
2022/07/24 04:13:50;;;;;;;15.05;8.93;;;;;;;;;;4938996;28;20043;-71
2022/07/24 04:16:18;;;;;;;18.90;10.23;;;;;;;;;;4934066;28;20046;-70
2022/07/24 04:18:43;;;;;;;17.02;10.93;;;;;;;;;;4933928;28;20043;-71
2022/07/24 04:21:09;;;;;;;20.48;11.23;;;;;;;;;;4937734;28;20098;-71
2022/07/24 04:23:37;;;;;;;19.25;12.93;;;;;;;;;;4937989;28;20160;-72
2022/07/24 04:26:02;;;;;;;20.02;12.80;;;;;;;;;;4936740;28;20138;-72
2022/07/24 04:28:27;;;;;;;15.75;11.75;;;;;;;;;;4937019;28;20034;-72
2022/07/24 04:30:53;;;;;;;17.77;11.63;;;;;;;;;;4938160;28;20049;-72
2022/07/24 04:33:18;;;;;;;19.50;11.18;;;;;;;;;;4939740;28;20030;-70
2022/07/24 04:35:43;;;;;;;21.02;12.52;;;;;;;;;;4937785;28;20074;-71
2022/07/24 04:38:08;;;;;;;18.35;11.38;;;;;;;;;;4951197;28;20043;-72
2022/07/24 04:40:34;;;;;;;18.42;13.27;;;;;;;;;;4936979;28;20046;-73
2022/07/24 04:43:00;;;;;;;19.48;10.65;;;;;;;;;;4936986;28;20034;-72
2022/07/24 04:45:25;;;;;;;16.55;9.43;;;;;;;;;;4951135;28;20045;-71
2022/07/24 04:47:53;;;;;;;13.93;8.13;;;;;;;;;;4937005;28;20027;-70
2022/07/24 04:50:19;;;;;;;14.00;8.45;;;;;;;;;;4936337;28;20137;-71
2022/07/24 04:52:45;;;;;;;13.48;7.97;;;;;;;;;;4936120;28;20027;-71
2022/07/24 04:55:13;;;;;;;14.32;8.38;;;;;;;;;;4935066;28;20751;-70
2022/07/24 04:57:38;;;;;;;16.23;10.48;;;;;;;;;;4937064;28;20034;-72
2022/07/24 05:00:04;;;;;;;18.17;9.30;;;;;;;;;;4937538;28;20058;-72
2022/07/24 05:02:30;;;;;;;19.77;9.10;;;;;;;;;;4937446;28;20034;-71
2022/07/24 05:04:55;;;;;;;17.55;8.95;;;;;;;;;;4933920;28;20524;-70
2022/07/24 05:07:20;;;;;;;14.05;8.50;;;;;;;;;;4936789;28;20034;-72
2022/07/24 05:09:46;;;;;;;15.25;7.68;;;;;;;;;;4919584;28;20078;-73
2022/07/24 05:12:11;;;;;;;11.73;7.10;;;;;;;;;;4941647;28;20027;-72
2022/07/24 05:14:36;;;;;;;11.57;6.10;;;;;;;;;;4937650;28;20035;-71
2022/07/24 05:17:04;;;;;;;14.50;5.80;;;;;;;;;;4936432;28;20038;-72
2022/07/24 05:19:32;;;;;;;8.75;4.95;;;;;;;;;;4935305;28;20874;-72
2022/07/24 05:21:57;;;;;;;15.18;5.43;;;;;;;;;;4939231;28;20134;-72
2022/07/24 05:24:24;;;;;;;12.82;5.15;;;;;;;;;;4935655;28;20826;-73
2022/07/24 05:26:52;;;;;;;10.45;4.72;;;;;;;;;;4940420;28;20031;-71
2022/07/24 05:29:18;;;;;;;8.98;4.65;;;;;;;;;;4935803;28;20046;-71
2022/07/24 05:31:43;;;;;;;11.38;6.18;;;;;;;;;;4935258;28;20043;-72
2022/07/24 05:34:08;;;;;;;9.85;5.57;;;;;;;;;;4935077;28;20045;-73
2022/07/24 05:36:34;;;;;;;10.63;4.80;;;;;;;;;;4934255;28;20816;-73
2022/07/24 05:38:59;;;;;;;10.80;5.60;;;;;;;;;;4943895;28;20038;-71
2022/07/24 05:41:25;;;;;;;10.40;5.97;;;;;;;;;;4950271;28;20031;-71
2022/07/24 05:43:50;;;;;;;10.18;5.47;;;;;;;;;;4934756;28;20788;-72
2022/07/24 05:46:17;;;;;;;15.63;7.00;;;;;;;;;;4933312;28;20035;-73
2022/07/24 05:48:43;;;;;;;18.23;8.02;;;;;;;;;;4934570;28;20038;-72
2022/07/24 05:51:08;;;;;;;17.00;9.40;;;;;;;;;;4934544;28;20593;-72
2022/07/24 05:53:34;;;;;;;12.95;7.53;;;;;;;;;;4934179;28;20045;-71
2022/07/24 05:56:02;;;;;;;13.98;6.90;;;;;;;;;;4934244;28;20039;-72
2022/07/24 05:58:27;;;;;;;17.05;8.68;;;;;;;;;;4935053;28;20054;-70
2022/07/24 06:00:53;;;;;;;14.90;8.43;;;;;;;;;;4947905;28;20054;-72
2022/07/24 06:03:18;;;;;;;20.70;9.48;;;;;;;;;;4930641;28;20117;-70
2022/07/24 06:05:46;;;;;;;15.10;7.95;;;;;;;;;;4947926;28;20062;-72
2022/07/24 06:08:11;;;;;;;15.18;7.75;;;;;;;;;;4939733;28;21072;-70
2022/07/24 06:10:37;;;;;;;10.60;4.30;;;;;;;;;;4935614;28;20120;-70
2022/07/24 06:13:05;;;;;;;10.32;5.25;;;;;;;;;;4933173;28;20200;-72
2022/07/24 06:15:30;;;;;;;11.73;6.32;;;;;;;;;;4940169;28;20052;-70
2022/07/24 06:17:56;;;;;;;9.55;4.63;;;;;;;;;;4935207;28;20038;-71
2022/07/24 06:20:23;;;;;;;10.38;4.60;;;;;;;;;;4934626;28;20589;-70
2022/07/24 06:22:49;;;;;;;13.05;5.47;;;;;;;;;;4931359;28;20209;-70
2022/07/24 06:25:14;;;;;;;10.88;4.22;;;;;;;;;;4931513;28;20057;-70
2022/07/24 06:27:44;;;;;;;9.05;3.42;;;;;;;;;;4931857;28;20762;-71
2022/07/24 06:30:17;;;;;;;8.85;3.40;;;;;;;;;;4940134;28;20039;-70
2022/07/24 06:32:45;;;;;;;8.52;3.08;;;;;;;;;;4930724;28;20031;-70
2022/07/24 06:35:10;;;;;;;5.43;2.72;;;;;;;;;;4931500;28;20030;-70
2022/07/24 06:37:38;;;;;;;7.28;3.08;;;;;;;;;;4931778;28;20050;-69
2022/07/24 06:40:04;;;;;;;9.27;3.03;;;;;;;;;;4931538;28;20597;-70
2022/07/24 06:42:30;;;;;;;8.07;2.83;;;;;;;;;;4931235;28;20198;-71
2022/07/24 06:44:56;;;;;;;7.15;3.08;;;;;;;;;;4931387;28;20582;-70
2022/07/24 06:47:21;;;;;;;9.50;2.78;;;;;;;;;;4931749;28;20059;-69
2022/07/24 06:49:48;;;;;;;8.48;2.63;;;;;;;;;;4944315;28;20137;-70
2022/07/24 06:52:14;;;;;;;7.50;3.40;;;;;;;;;;4932335;28;20105;-70
2022/07/24 06:54:41;;;;;;;6.38;3.28;;;;;;;;;;4932742;28;20027;-70
2022/07/24 06:57:06;;;;;;;6.32;3.13;;;;;;;;;;4950336;28;20058;-69
2022/07/24 06:59:32;;;;;;;8.57;3.28;;;;;;;;;;4934202;28;20035;-67
2022/07/24 07:01:57;;;;;;;7.00;2.97;;;;;;;;;;4935573;28;20034;-67
2022/07/24 07:04:22;;;;;;;8.23;3.05;;;;;;;;;;4932261;28;20035;-68
2022/07/24 07:06:50;;;;;;;9.80;2.72;;;;;;;;;;4934822;28;21110;-67
2022/07/24 07:09:15;;;;;;;11.13;4.18;;;;;;;;;;4948001;28;20039;-68
2022/07/24 07:11:40;;;;;;;11.23;5.20;;;;;;;;;;4934787;28;20031;-68
2022/07/24 07:14:06;;;;;;;13.63;6.50;;;;;;;;;;4948409;28;20042;-69
2022/07/24 07:16:31;;;;;;;13.38;5.03;;;;;;;;;;4934186;28;20859;-66
2022/07/24 07:18:57;;;;;;;9.50;4.82;;;;;;;;;;4936692;28;20754;-67
2022/07/24 07:21:25;;;;;;;13.95;6.03;;;;;;;;;;4932496;28;20148;-67
2022/07/24 07:23:53;;;;;;;10.98;4.43;;;;;;;;;;4934395;28;20520;-70
2022/07/24 07:26:19;;;;;;;10.38;4.95;;;;;;;;;;4934632;28;20042;-67
2022/07/24 07:28:44;;;;;;;8.57;4.18;;;;;;;;;;4945583;28;20126;-67
2022/07/24 07:31:09;;;;;;;7.18;3.00;;;;;;;;;;4929723;28;20668;-68
2022/07/24 07:33:34;;;;;;;9.07;3.03;;;;;;;;;;4928717;28;20370;-67
2022/07/24 07:36:00;;;;;;;10.32;5.78;;;;;;;;;;4930343;28;20082;-67
2022/07/24 07:38:26;;;;;;;8.93;3.88;;;;;;;;;;4928308;28;20423;-68
2022/07/24 07:40:51;;;;;;;10.55;6.03;;;;;;;;;;4932067;28;20764;-68
2022/07/24 07:43:16;;;;;;;12.13;5.05;;;;;;;;;;4929745;28;20383;-67
2022/07/24 07:45:42;;;;;;;10.30;4.78;;;;;;;;;;4929812;28;20034;-68
2022/07/24 07:48:07;;;;;;;11.68;5.53;;;;;;;;;;4933096;28;20031;-66
2022/07/24 07:50:32;;;;;;;10.02;4.97;;;;;;;;;;4933627;28;20033;-68
2022/07/24 07:52:57;;;;;;;11.98;4.53;;;;;;;;;;4947207;28;20042;-68
2022/07/24 07:55:25;;;;;;;8.93;3.50;;;;;;;;;;4929500;28;20050;-69
2022/07/24 07:57:51;;;;;;;8.02;2.58;;;;;;;;;;4949957;28;20084;-69
2022/07/24 08:00:18;;;;;;;7.38;2.60;;;;;;;;;;4937520;28;20035;-68
2022/07/24 08:02:46;;;;;;;7.18;2.70;;;;;;;;;;4936894;28;20034;-68
2022/07/24 08:05:11;;;;;;;7.18;2.30;;;;;;;;;;4937146;28;20061;-68
2022/07/24 08:07:37;;;;;;;11.20;2.60;;;;;;;;;;4934362;28;20030;-67
2022/07/24 08:10:06;;;;;;;6.65;2.08;;;;;;;;;;4937356;28;20113;-69
2022/07/24 08:12:31;;;;;;;6.47;2.50;;;;;;;;;;4937134;28;20911;-67
2022/07/24 08:14:56;;;;;;;7.78;2.38;;;;;;;;;;4937381;28;20035;-66
2022/07/24 08:17:22;;;;;;;8.55;2.55;;;;;;;;;;4937627;28;22337;-67
2022/07/24 08:19:48;;;;;;;9.60;2.50;;;;;;;;;;4939978;28;20042;-66
2022/07/24 08:22:13;;;;;;;6.63;1.90;;;;;;;;;;4937552;28;20070;-66
2022/07/24 08:24:39;;;;;;;11.35;2.50;;;;;;;;;;4936255;28;20049;-66
2022/07/24 08:27:04;;;;;;;8.48;2.50;;;;;;;;;;4941598;28;20063;-66
2022/07/24 08:29:29;;;;;;;7.40;2.55;;;;;;;;;;4937687;28;20042;-66
2022/07/24 08:31:55;;;;;;;8.13;2.25;;;;;;;;;;4935083;28;20143;-66
2022/07/24 08:34:20;;;;;;;6.47;2.17;;;;;;;;;;4936918;28;21705;-66
2022/07/24 08:36:45;;;;;;;8.52;2.35;;;;;;;;;;4936687;28;20061;-65
2022/07/24 08:39:12;;;;;;;7.15;2.22;;;;;;;;;;4951071;28;20995;-66
2022/07/24 08:41:37;;;;;;;6.38;2.35;;;;;;;;;;4935305;28;20065;-66
2022/07/24 08:44:05;;;;;;;8.95;2.72;;;;;;;;;;4933792;28;20145;-68
2022/07/24 08:46:31;;;;;;;6.88;2.50;;;;;;;;;;4931239;28;20741;-66
2022/07/24 08:48:56;;;;;;;6.43;2.55;;;;;;;;;;4936046;28;20114;-65
2022/07/24 08:51:22;;;;;;;6.53;2.42;;;;;;;;;;4936080;28;20258;-66
2022/07/24 08:53:49;;;;;;;7.60;2.13;;;;;;;;;;4931785;28;20045;-66
2022/07/24 08:56:17;;;;;;;7.25;2.22;;;;;;;;;;4931231;28;20114;-66
2022/07/24 08:58:43;;;;;;;5.72;2.20;;;;;;;;;;4931026;28;20367;-66
2022/07/24 09:01:08;;;;;;;6.57;2.08;;;;;;;;;;4931247;28;20035;-66
2022/07/24 09:03:41;;;;;;;6.95;2.03;;;;;;;;;;4929862;28;20191;-66
2022/07/24 09:06:07;;;;;;;6.20;2.30;;;;;;;;;;4930300;28;20551;-66
2022/07/24 09:08:33;;;;;;;6.15;2.40;;;;;;;;;;4932263;28;20042;-66
2022/07/24 09:11:03;;;;;;;7.00;2.17;;;;;;;;;;4931344;28;20034;-68
2022/07/24 09:13:29;;;;;;;11.57;2.50;;;;;;;;;;4930550;28;20192;-67
2022/07/24 09:15:55;;;;;;;10.10;2.30;;;;;;;;;;4930943;28;20054;-65
2022/07/24 09:18:31;;;;;;;8.70;2.53;;;;;;;;;;4930989;28;20506;-65
2022/07/24 09:21:10;;;;;;;6.22;2.03;;;;;;;;;;4930886;28;20027;-66
2022/07/24 09:23:38;;;;;;;;;;;;;;;;;;4933146;28;20049;-66
2022/07/24 09:26:03;;;;;;;11.85;2.50;;;;;;;;;;4932485;28;21726;-65
2022/07/24 09:28:28;;;;;;;10.13;2.45;;;;;;;;;;4928314;28;20042;-66
2022/07/24 09:31:00;;;;;;;8.13;2.58;;;;;;;;;;4932518;28;20035;-66
2022/07/24 09:33:34;;;;;;;14.05;2.83;;;;;;;;;;4930491;28;20213;-65
2022/07/24 09:36:00;;;;;;;12.77;2.47;;;;;;;;;;4930499;28;20536;-67
2022/07/24 09:38:25;;;;;;;9.57;2.55;;;;;;;;;;4930419;28;20058;-68
2022/07/24 09:40:55;;;;;;;8.48;2.17;;;;;;;;;;4930324;28;20609;-66
2022/07/24 09:43:20;;;;;;;7.55;2.22;;;;;;;;;;4929777;28;20043;-65
2022/07/24 09:45:56;;;;;;;6.65;2.17;;;;;;;;;;4930973;28;20027;-66
2022/07/24 09:48:24;;;;;;;7.90;2.35;;;;;;;;;;4930045;28;20201;-65
2022/07/24 09:50:50;;;;;;;8.10;2.35;;;;;;;;;;4930104;28;20038;-66
2022/07/24 09:53:20;;;;;;;7.65;2.40;;;;;;;;;;4929111;28;21213;-66
2022/07/24 09:55:58;;;;;;;8.82;2.45;;;;;;;;;;4928887;28;20047;-66
2022/07/24 09:58:26;;;;;;;8.18;2.00;;;;;;;;;;4930330;28;20035;-66
2022/07/24 10:00:55;;;;;;;14.63;2.35;;;;;;;;;;4928383;28;20039;-66
2022/07/24 10:03:24;;;;;;;9.20;2.17;;;;;;;;;;4930120;28;20038;-65
2022/07/24 10:05:53;;;;;;;11.77;2.40;;;;;;;;;;4929991;28;20349;-66
2022/07/24 10:08:21;;;;;;;7.07;2.40;;;;;;;;;;4931200;28;20585;-66
2022/07/24 10:10:47;;;;;;;8.38;2.42;;;;;;;;;;4930081;28;20494;-66
2022/07/24 10:13:12;;;;;;;8.18;2.22;;;;;;;;;;4929999;28;22019;-66
2022/07/24 10:15:44;;;;;;;4.78;2.33;;;;;;;;;;4930275;28;20512;-67
2022/07/24 10:18:16;;;;;;;6.97;2.20;;;;;;;;;;4930698;28;20068;-66
2022/07/24 10:20:43;;;;;;;5.80;2.13;;;;;;;;;;4929843;28;20879;-67
2022/07/24 10:23:08;;;;;;;6.22;1.85;;;;;;;;;;4933941;28;20113;-67
2022/07/24 10:25:49;;;;;;;7.88;2.47;;;;;;;;;;4935028;28;20026;-67
2022/07/24 10:28:21;;;;;;;8.00;2.50;;;;;;;;;;4934612;28;20148;-66
2022/07/24 10:30:46;;;;;;;9.27;2.40;;;;;;;;;;4933924;28;20034;-67
2022/07/24 10:33:12;;;;;;;9.13;2.30;;;;;;;;;;4935121;28;20587;-66
2022/07/24 10:35:39;;;;;;;12.15;2.63;;;;;;;;;;4934314;28;20043;-67
2022/07/24 10:38:12;;;;;;;10.57;2.22;;;;;;;;;;4931266;28;20989;-68
2022/07/24 10:40:53;;;;;;;9.82;2.67;;;;;;;;;;4933523;28;20159;-66
2022/07/24 10:43:20;;;;;;;12.45;2.65;;;;;;;;;;4934468;28;20034;-67
2022/07/24 10:46:05;;;;;;;8.80;2.72;;;;;;;;;;4948011;28;20061;-66
2022/07/24 10:48:32;;;;;;;7.97;2.42;;;;;;;;;;4934531;28;20081;-67
2022/07/24 10:51:00;;;;;;;8.65;2.58;;;;;;;;;;4938982;28;20122;-65
2022/07/24 10:53:29;;;;;;;7.13;2.25;;;;;;;;;;4935213;28;20101;-68
2022/07/24 10:56:13;;;;;;;8.00;2.55;;;;;;;;;;4935531;28;20070;-68
2022/07/24 10:58:56;;;;;;;7.10;2.40;;;;;;;;;;4934546;28;20772;-66
2022/07/24 11:01:28;;;;;;;9.25;2.60;;;;;;;;;;4935015;28;20069;-67
2022/07/24 11:03:53;;;;;;;;;;;;;;;;;;4934937;28;20035;-66
2022/07/24 11:06:21;;;;;;;7.65;2.50;;;;;;;;;;4937774;28;19922;-66
2022/07/24 11:08:49;;;;;;;8.00;2.67;;;;;;;;;;4932476;28;20074;-67
2022/07/24 11:11:19;;;;;;;10.77;2.80;;;;;;;;;;4933168;28;20150;-66
2022/07/24 11:13:56;;;;;;;6.70;2.30;;;;;;;;;;4933965;28;20039;-67
2022/07/24 11:16:23;;;;;;;9.68;2.40;;;;;;;;;;4934632;28;20146;-66
2022/07/24 11:18:57;;;;;;;5.30;2.40;;;;;;;;;;4932969;28;20038;-66
2022/07/24 11:21:29;;;;;;;6.68;2.42;;;;;;;;;;4936042;28;20046;-65
2022/07/24 11:24:13;;;;;;;8.38;2.15;;;;;;;;;;4930084;28;20137;-66
2022/07/24 11:26:40;;;;;;;6.82;2.47;;;;;;;;;;4930197;28;20224;-65
2022/07/24 11:29:27;;;;;;;11.57;2.50;;;;;;;;;;4930256;28;20086;-65
2022/07/24 11:31:59;;;;;;;7.05;2.20;;;;;;;;;;4928084;28;20201;-66
2022/07/24 11:34:25;;;;;;;6.53;2.67;;;;;;;;;;4929756;28;20575;-66
2022/07/24 11:36:52;;;;;;;5.43;2.45;;;;;;;;;;4937258;28;20136;-63
2022/07/24 11:39:20;;;;;;;6.57;2.70;;;;;;;;;;4933145;28;20043;-65
2022/07/24 11:41:47;;;;;;;8.82;2.72;;;;;;;;;;4934524;28;20057;-65
2022/07/24 11:44:13;;;;;;;5.95;2.65;;;;;;;;;;4933644;28;20085;-64
2022/07/24 11:46:39;;;;;;;8.40;2.55;;;;;;;;;;4948288;28;20034;-63
2022/07/24 11:49:05;;;;;;;10.20;2.65;;;;;;;;;;4932844;28;20182;-63
2022/07/24 11:51:32;;;;;;;7.47;2.78;;;;;;;;;;4934401;28;20121;-64
2022/07/24 11:53:57;;;;;;;9.52;3.00;;;;;;;;;;4933558;28;20135;-64
2022/07/24 11:56:22;;;;;;;7.97;2.55;;;;;;;;;;4933603;28;20062;-64
2022/07/24 11:58:48;;;;;;;10.77;2.60;;;;;;;;;;4933681;28;20043;-64
2022/07/24 12:01:23;;;;;;;13.57;3.22;;;;;;;;;;4933533;28;20120;-64
2022/07/24 12:03:52;;;;;;;8.13;2.33;;;;;;;;;;4933631;28;20042;-65
2022/07/24 12:06:18;;;;;;;5.32;2.20;;;;;;;;;;4933510;28;20066;-64
2022/07/24 12:08:44;;;;;;;7.15;2.80;;;;;;;;;;4933107;28;20046;-64
2022/07/24 12:11:10;;;;;;;7.00;2.55;;;;;;;;;;4933755;28;20815;-67
2022/07/24 12:13:40;;;;;;;6.35;2.78;;;;;;;;;;4933104;28;20434;-66
2022/07/24 12:16:07;;;;;;;6.80;2.67;;;;;;;;;;4927169;28;20085;-68
2022/07/24 12:18:33;;;;;;;7.47;2.60;;;;;;;;;;4934086;28;22266;-63
2022/07/24 12:21:01;;;;;;;8.07;2.80;;;;;;;;;;4929859;28;20038;-64
2022/07/24 12:23:28;;;;;;;5.78;2.50;;;;;;;;;;4931220;28;20069;-65
2022/07/24 12:25:59;;;;;;;7.40;2.58;;;;;;;;;;4934012;28;20097;-65
2022/07/24 12:28:26;;;;;;;10.70;2.80;;;;;;;;;;4954128;28;20032;-65
2022/07/24 12:30:53;;;;;;;5.05;2.20;;;;;;;;;;4939224;28;20082;-65
2022/07/24 12:33:26;;;;;;;6.50;2.33;;;;;;;;;;4929850;28;20997;-65
2022/07/24 12:36:21;;;;;;;4.55;2.00;;;;;;;;;;4929721;28;20035;-65
2022/07/24 12:38:56;;;;;;;7.43;1.88;;;;;;;;;;4925182;28;20027;-66
2022/07/24 12:41:23;;;;;;;4.50;1.92;;;;;;;;;;4932252;28;20469;-66
2022/07/24 12:43:51;;;;;;;5.63;2.08;;;;;;;;;;4932941;28;20038;-64
2022/07/24 12:46:17;;;;;;;4.05;1.95;;;;;;;;;;4932349;28;20929;-66
2022/07/24 12:49:02;;;;;;;5.40;1.90;;;;;;;;;;4932950;28;20046;-67
2022/07/24 12:51:46;;;;;;;5.00;1.90;;;;;;;;;;4934173;28;20117;-65
2022/07/24 12:54:19;;;;;;;3.40;1.70;;;;;;;;;;4931884;28;20538;-66
2022/07/24 12:56:46;;;;;;;6.45;2.10;;;;;;;;;;4930126;28;20611;-66
2022/07/24 12:59:21;;;;;;;5.07;2.10;;;;;;;;;;4930641;28;20046;-65
2022/07/24 13:01:51;;;;;;;7.40;2.10;;;;;;;;;;4930097;28;20508;-65
2022/07/24 13:04:20;;;;;;;7.40;2.30;;;;;;;;;;4935850;28;20496;-64
2022/07/24 13:06:47;;;;;;;5.47;2.20;;;;;;;;;;4930319;28;20387;-64
2022/07/24 13:09:15;;;;;;;5.68;2.15;;;;;;;;;;4929231;28;20404;-66
2022/07/24 13:11:41;;;;;;;9.10;2.30;;;;;;;;;;4931412;28;20038;-67
2022/07/24 13:14:08;;;;;;;7.97;2.40;;;;;;;;;;4929945;28;20153;-67
2022/07/24 13:16:35;;;;;;;6.35;2.47;;;;;;;;;;4930711;28;20112;-67
2022/07/24 13:19:01;;;;;;;8.38;2.33;;;;;;;;;;4928594;28;20038;-67
2022/07/24 13:21:27;;;;;;;7.25;2.40;;;;;;;;;;4930209;28;20502;-67
2022/07/24 13:23:53;;;;;;;6.68;2.20;;;;;;;;;;4930004;28;20521;-67
2022/07/24 13:26:18;;;;;;;6.43;2.70;;;;;;;;;;4931634;28;20035;-67
2022/07/24 13:28:46;;;;;;;7.80;2.35;;;;;;;;;;4929939;28;20034;-68
2022/07/24 13:31:12;;;;;;;5.88;2.45;;;;;;;;;;4930254;28;20046;-68
2022/07/24 13:33:40;;;;;;;3.70;2.35;;;;;;;;;;4937346;28;20781;-65
2022/07/24 13:36:06;;;;;;;8.13;2.50;;;;;;;;;;4929545;28;20173;-66
2022/07/24 13:38:31;;;;;;;10.30;2.60;;;;;;;;;;4930123;28;20435;-65
2022/07/24 13:40:57;;;;;;;9.07;2.40;;;;;;;;;;4933990;28;20042;-67
2022/07/24 13:43:22;;;;;;;5.53;2.20;;;;;;;;;;4929720;28;20066;-64
2022/07/24 13:45:47;;;;;;;5.97;2.13;;;;;;;;;;4929523;28;20796;-64
2022/07/24 13:48:12;;;;;;;4.43;2.47;;;;;;;;;;4928756;28;20034;-65
2022/07/24 13:50:38;;;;;;;3.42;2.55;;;;;;;;;;4937338;28;20127;-65
2022/07/24 13:53:03;;;;;;;4.40;2.78;;;;;;;;;;4928935;28;20034;-64
2022/07/24 13:55:30;;;;;;;7.18;3.10;;;;;;;;;;4929797;28;20496;-65
2022/07/24 13:57:55;;;;;;;3.42;2.90;;;;;;;;;;4928450;28;20488;-65
2022/07/24 14:00:24;;;;;;;5.65;3.47;;;;;;;;;;4929266;28;20035;-67
2022/07/24 14:02:50;;;;;;;7.63;3.65;;;;;;;;;;4928800;28;20042;-67
2022/07/24 14:05:18;;;;;;;8.88;1.92;;;;;;;;;;4928318;28;20644;-66
2022/07/24 14:07:48;;;;;;;6.53;2.33;;;;;;;;;;4928638;28;20035;-65
2022/07/24 14:10:14;;;;;;;4.70;2.20;;;;;;;;;;4929041;28;20499;-66
2022/07/24 14:12:40;;;;;;;6.18;2.00;;;;;;;;;;4929162;28;20039;-65
2022/07/24 14:15:05;;;;;;;8.32;2.08;;;;;;;;;;4929400;28;20042;-65
2022/07/24 14:17:30;;;;;;;13.68;2.42;;;;;;;;;;4936436;28;20838;-64
2022/07/24 14:19:56;;;;;;;7.60;2.45;;;;;;;;;;4932387;28;20508;-65
2022/07/24 14:22:24;;;;;;;6.75;2.85;;;;;;;;;;4933315;28;20159;-65
2022/07/24 14:24:49;;;;;;;9.32;2.65;;;;;;;;;;4941331;28;20045;-65
2022/07/24 14:27:15;;;;;;;9.07;2.53;;;;;;;;;;4933367;28;21281;-66
2022/07/24 14:29:42;;;;;;;9.82;2.65;;;;;;;;;;4933243;28;20205;-65
2022/07/24 14:32:08;;;;;;;9.55;2.70;;;;;;;;;;4933528;28;20043;-65
2022/07/24 14:34:33;;;;;;;10.93;2.58;;;;;;;;;;4932811;28;21185;-65